Time;durP1;ratioP1;P1;durP2;ratioP2;P2;SDS_P1;SDS_P2;PMS_P1;PMS_P2;Temp;Humidity;BMP_temperature;BMP_pressure;BME280_temperature;BME280_humidity;BME280_pressure;Samples;Min_cycle;Max_cycle;Signal;HPM_P1;HPM_P2
2022/05/12 06:22:50;;;;;;;;;2.00;2.00;;;;;18.39;100.00;101218.50;6307823;22;46303;-91
2022/05/12 06:25:17;;;;;;;;;4.67;1.33;;;;;18.33;100.00;101193.53;6365596;22;45270;-91
2022/05/12 06:27:44;;;;;;;;;2.67;1.67;;;;;18.50;100.00;101221.34;6368233;22;45324;-91
2022/05/12 06:30:11;;;;;;;;;6.00;3.00;;;;;18.51;100.00;101225.81;6372293;22;45322;-90
2022/05/12 06:32:40;;;;;;;;;3.00;1.33;;;;;18.61;100.00;101229.53;6377915;22;46105;-93
2022/05/12 06:35:08;;;;;;;;;5.00;5.00;;;;;18.64;100.00;101228.69;6371978;22;45859;-88
2022/05/12 06:37:34;;;;;;;;;2.00;2.00;;;;;18.77;100.00;101237.81;6365955;22;45418;-90
2022/05/12 06:40:00;;;;;;;;;3.00;2.00;;;;;18.89;100.00;101244.25;6363950;22;45336;-89
2022/05/12 06:42:25;;;;;;;;;3.00;3.00;;;;;19.07;100.00;101241.91;6364172;22;45218;-89
2022/05/12 06:44:50;;;;;;;;;2.00;2.00;;;;;19.29;100.00;101244.09;6365977;22;45434;-89
2022/05/12 06:47:16;;;;;;;;;3.33;2.00;;;;;19.44;100.00;101254.09;6364218;22;45391;-89
2022/05/12 06:49:42;;;;;;;;;4.00;2.00;;;;;19.50;100.00;101272.84;6363724;22;45382;-89
2022/05/12 06:52:09;;;;;;;;;3.67;2.00;;;;;19.52;100.00;101275.50;6363695;22;47287;-89
2022/05/12 06:54:36;;;;;;;;;4.00;4.00;;;;;19.51;100.00;101274.63;6365556;22;45816;-89
2022/05/12 06:57:02;;;;;;;;;2.67;2.67;;;;;19.47;100.00;101267.47;6362373;22;45261;-87
2022/05/12 06:59:27;;;;;;;;;4.00;4.00;;;;;19.49;100.00;101284.34;6362080;22;45427;-89
2022/05/12 07:01:53;;;;;;;;;5.00;3.00;;;;;19.41;100.00;101278.88;6362954;22;46914;-85
2022/05/12 07:04:19;;;;;;;;;1.33;1.33;;;;;19.41;100.00;101292.19;6362804;22;45324;-90
2022/05/12 07:06:45;;;;;;;;;4.33;3.00;;;;;19.39;100.00;101274.41;6363617;22;45376;-89
2022/05/12 07:09:10;;;;;;;;;3.00;3.00;;;;;19.45;100.00;101277.19;6365472;22;45307;-88
2022/05/12 07:11:36;;;;;;;;;2.33;2.33;;;;;19.56;100.00;101288.00;6364436;22;46300;-88
2022/05/12 07:14:01;;;;;;;;;4.00;3.00;;;;;19.59;99.84;101288.06;6361918;22;45316;-87
2022/05/12 07:16:26;;;;;;;;;4.33;3.00;;;;;19.63;99.29;101303.22;6359850;22;45655;-87
2022/05/12 07:18:51;;;;;;;;;3.00;3.00;;;;;19.66;98.70;101302.38;6364243;22;45417;-88
2022/05/12 07:26:47;;;;;;;;;0.67;0.67;;;;;19.82;98.70;101306.16;6364213;22;45366;-89
2022/05/12 07:29:17;;;;;;;;;2.00;2.00;;;;;19.94;98.27;101305.47;6362497;22;45252;-87
2022/05/12 07:31:43;;;;;;;;;1.67;1.67;;;;;20.03;97.02;101314.47;6362087;22;48441;-88
2022/05/12 07:34:09;;;;;;;;;0.67;0.67;;;;;20.10;97.36;101309.25;6363773;22;45259;-88
2022/05/12 07:36:42;;;;;;;;;4.00;1.67;;;;;20.17;96.94;101307.63;6364352;22;45536;-89
2022/05/12 07:39:08;;;;;;;;;5.00;3.00;;;;;20.21;96.62;101313.88;6362505;22;45375;-89
2022/05/12 07:41:33;;;;;;;;;3.33;3.33;;;;;20.28;95.82;101328.19;6363783;22;46007;-89
2022/05/12 07:43:59;;;;;;;;;2.00;2.00;;;;;20.36;96.38;101325.66;6362549;22;45965;-88
2022/05/12 07:46:28;;;;;;;;;1.00;1.00;;;;;20.46;95.36;101334.66;6365253;22;45325;-89
2022/05/12 07:48:54;;;;;;;;;1.00;0.67;;;;;20.52;96.04;101330.28;6364410;22;45275;-89
2022/05/12 07:51:20;;;;;;;;;5.00;2.67;;;;;20.64;95.03;101345.56;6362494;22;47532;-89
2022/05/12 07:53:47;;;;;;;;;1.00;1.00;;;;;20.72;94.16;101344.78;6362656;22;45682;-89
2022/05/12 07:56:15;;;;;;;;;2.00;2.00;;;;;20.80;94.67;101353.75;6362132;22;45434;-89
2022/05/12 07:58:41;;;;;;;;;3.67;2.00;;;;;20.92;94.26;101349.44;6364486;22;45287;-90
2022/05/12 08:01:06;;;;;;;;;4.33;2.00;;;;;21.02;94.18;101354.06;6362749;22;47304;-89
2022/05/12 08:03:32;;;;;;;;;2.00;2.00;;;;;21.08;93.67;101356.78;6362628;22;45412;-88
2022/05/12 08:05:59;;;;;;;;;3.00;2.00;;;;;21.15;92.98;101373.78;6362126;22;45412;-87
2022/05/12 08:08:25;;;;;;;;;1.00;1.00;;;;;21.19;91.70;101386.25;6364124;22;45845;-88
2022/05/12 08:10:50;;;;;;;;;1.67;1.67;;;;;21.20;92.23;101381.81;6364618;22;46093;-89
2022/05/12 08:13:16;;;;;;;;;2.67;2.00;;;;;21.25;91.39;101387.22;6362597;22;45275;-89
2022/05/12 08:15:46;;;;;;;;;2.00;1.00;;;;;21.31;91.54;101390.81;6363499;22;45320;-89
2022/05/12 08:18:13;;;;;;;;;2.67;2.33;;;;;21.33;90.52;101393.53;6364614;22;45291;-90
2022/05/12 08:20:39;;;;;;;;;1.00;1.00;;;;;21.39;89.84;101422.97;6364253;22;45256;-89
2022/05/12 08:23:05;;;;;;;;;2.00;1.00;;;;;21.39;88.58;101422.97;6364201;22;45347;-91
2022/05/12 08:25:31;;;;;;;;;2.00;2.00;;;;;21.41;88.92;101426.56;6363062;22;45280;-90
2022/05/12 08:27:57;;;;;;;;;2.00;1.00;;;;;21.48;88.42;101422.19;6362353;22;45248;-91
2022/05/12 08:30:22;;;;;;;;;0.00;0.00;;;;;21.53;88.83;101423.13;6365745;22;45402;-90
2022/05/12 08:32:47;;;;;;;;;1.00;0.00;;;;;21.62;88.67;101414.28;6362374;22;45797;-91
2022/05/12 08:35:13;;;;;;;;;1.00;1.00;;;;;21.72;88.12;101428.66;6366194;22;45349;-90
2022/05/12 08:37:40;;;;;;;;;3.00;0.00;;;;;21.80;88.39;101436.72;6362144;22;45386;-89
2022/05/12 08:40:08;;;;;;;;;1.00;1.00;;;;;21.82;86.75;101447.44;6366402;22;46061;-93
2022/05/12 08:42:41;;;;;;;;;1.33;1.33;;;;;21.89;87.26;101443.97;6369836;22;45305;-96
2022/05/12 08:45:09;;;;;;;;;3.00;2.00;;;;;21.97;87.77;101433.34;6375868;22;45898;-96
2022/05/12 08:47:47;;;;;;;;;3.67;1.33;;;;;21.94;87.46;101419.94;6348533;22;46596;-96
2022/05/12 08:50:31;;;;;;;;;1.00;1.00;;;;;22.00;87.44;101417.34;6292300;22;47286;-95
2022/05/12 08:53:53;;;;;;;;;1.67;1.00;;;;;22.09;87.78;101419.19;6296474;22;45253;-96
2022/05/12 08:56:21;;;;;;;;;3.33;2.33;;;;;22.26;87.06;101439.81;6293915;22;45372;-96
2022/05/12 08:58:49;;;;;;;;;3.00;0.33;;;;;22.27;87.14;101418.44;6281028;22;45394;-93
2022/05/12 09:01:39;;;;;;;;;1.50;1.50;;;;;22.41;86.45;101426.56;6289608;22;47403;-96
2022/05/12 09:04:35;;;;;;;;;1.00;1.00;;;;;22.61;87.16;101425.78;6352617;22;45209;-96
2022/05/12 09:07:31;;;;;;;;;3.00;1.00;;;;;22.81;86.97;101437.50;6343833;22;45289;-96
2022/05/12 09:10:12;;;;;;;;;1.00;1.00;;;;;22.97;86.61;101430.44;6340526;22;45422;-96
2022/05/12 09:13:00;;;;;;;;;1.67;1.00;;;;;23.12;85.80;101436.78;6343800;22;47279;-96
2022/05/12 09:15:31;;;;;;;;;2.67;1.00;;;;;23.13;85.37;101438.53;6346864;22;46123;-96
2022/05/12 09:17:59;;;;;;;;;0.67;0.67;;;;;23.10;84.83;101445.69;6358426;22;45479;-96
2022/05/12 09:20:40;;;;;;;;;1.67;1.00;;;;;23.06;84.86;101443.88;6352220;22;45821;-96
2022/05/12 09:23:18;;;;;;;;;2.00;2.00;;;;;23.17;84.58;101443.91;6288126;22;47112;-96
2022/05/12 09:25:55;;;;;;;;;2.00;1.00;;;;;23.35;84.79;101446.66;6347543;22;45230;-96
2022/05/12 09:28:43;;;;;;;;;1.67;1.67;;;;;23.59;84.52;101451.19;6341692;22;45509;-95
2022/05/12 09:31:26;;;;;;;;;2.67;1.00;;;;;23.98;85.16;101459.28;6346159;22;45493;-96
2022/05/12 09:33:52;;;;;;;;;2.67;1.00;;;;;24.15;84.15;101461.06;6343148;22;47244;-96
2022/05/12 09:36:28;;;;;;;;;1.67;1.67;;;;;24.54;84.16;101463.75;6344575;22;45311;-96
2022/05/12 09:38:58;;;;;;;;;1.00;1.00;;;;;24.82;83.15;101462.78;6336896;22;45355;-96
2022/05/12 09:41:44;;;;;;;;;2.00;1.00;;;;;25.33;83.41;101460.84;6355270;22;45414;-96
2022/05/12 09:44:17;;;;;;;;;0.00;0.00;;;;;25.79;82.03;101491.03;6332544;22;47095;-94
2022/05/12 09:47:00;;;;;;;;;0.33;0.33;;;;;26.22;81.79;101480.84;6352810;22;45095;-96
2022/05/12 09:49:50;;;;;;;;;2.00;2.00;;;;;26.74;82.04;101489.34;6393336;22;45412;-96
2022/05/12 09:52:27;;;;;;;;;2.00;2.00;;;;;27.22;79.68;101527.44;6364815;22;45390;-96
2022/05/12 09:55:11;;;;;;;;;2.00;0.33;;;;;27.61;80.00;101518.84;6395692;22;48321;-96
2022/05/12 09:57:45;;;;;;;;;3.00;2.00;;;;;27.98;78.63;101535.41;6394307;22;46001;-93
2022/05/12 10:00:42;;;;;;;;;1.00;1.00;;;;;29.03;79.40;101516.50;6364047;22;45270;-93
2022/05/12 10:09:16;;;;;;;;;0.00;0.00;;;;;32.16;73.91;101664.00;6364155;22;45436;-92
2022/05/12 10:12:02;;;;;;;;;1.00;1.00;;;;;32.97;74.17;101655.88;6389200;22;45634;-92
2022/05/12 10:14:42;;;;;;;;;1.00;1.00;;;;;34.48;72.81;101666.59;6365836;22;45481;-92
2022/05/12 10:17:16;;;;;;;;;0.67;0.67;;;;;35.73;71.51;101676.63;6366352;22;45624;-93
2022/05/12 10:19:45;;;;;;;;;1.00;1.00;;;;;36.76;68.15;101687.16;6398603;22;45363;-96
2022/05/12 10:22:18;;;;;;;;;0.00;0.00;;;;;37.33;66.32;101690.59;6398876;22;45304;-94
2022/05/12 10:25:25;;;;;;;;;1.00;1.00;;;;;38.03;64.56;101693.25;6390055;22;45315;-95
2022/05/12 10:28:11;;;;;;;;;0.33;0.33;;;;;38.64;61.91;101697.06;6269264;22;46478;-93
2022/05/12 10:30:45;;;;;;;;;0.00;0.00;;;;;38.61;60.81;101699.97;6268847;22;45429;-94
2022/05/12 10:33:28;;;;;;;;;0.00;0.00;;;;;39.00;58.45;101706.81;6276720;22;45290;-93
2022/05/12 10:36:00;;;;;;;;;0.33;0.33;;;;;38.32;57.87;101707.06;6274847;22;45524;-95
2022/05/12 10:38:37;;;;;;;;;0.67;0.67;;;;;38.72;58.36;101713.06;6245135;22;47455;-95
2022/05/12 10:41:23;;;;;;;;;2.00;0.33;;;;;37.75;56.53;101714.84;6284312;22;44718;-95
2022/05/12 10:44:02;;;;;;;;;0.33;0.33;;;;;36.73;56.69;101719.22;6258684;22;45326;-96
2022/05/12 10:46:57;;;;;;;;;0.67;0.00;;;;;37.18;57.66;101713.31;6258708;22;45342;-96
2022/05/12 10:52:27;;;;;;;;;0.00;0.00;;;;;39.28;55.59;101712.44;6382808;22;45415;-94
2022/05/12 10:55:13;;;;;;;;;1.00;1.00;;;;;39.67;55.21;101711.88;6414254;22;45230;-96
2022/05/12 10:58:19;;;;;;;;;0.00;0.00;;;;;40.32;54.82;101708.66;6424122;22;45508;-96
2022/05/12 11:00:45;;;;;;;;;1.00;1.00;;;;;41.70;54.09;101706.59;6402559;22;45454;-90
2022/05/12 11:03:20;;;;;;;;;0.33;0.00;;;;;42.83;53.26;101706.47;6405158;22;45330;-93
2022/05/12 11:05:53;;;;;;;;;1.33;0.00;;;;;43.80;51.42;101706.22;6407982;22;45577;-93
2022/05/12 11:08:45;;;;;;;;;0.00;0.00;;;;;43.39;49.50;101709.50;6329686;22;45582;-96
2022/05/12 11:11:24;;;;;;;;;0.00;0.00;;;;;44.08;49.80;101710.31;6332421;22;47198;-95
2022/05/12 11:14:15;;;;;;;;;0.00;0.00;;;;;45.03;45.62;101722.66;6332297;22;45276;-93
2022/05/12 11:16:55;;;;;;;;;0.00;0.00;;;;;43.98;46.58;101709.34;6335653;22;45277;-96
2022/05/12 11:19:23;;;;;;;;;0.00;0.00;;;;;44.41;46.27;101715.88;6334399;22;45450;-95
2022/05/12 11:21:55;;;;;;;;;1.67;0.33;;;;;45.23;46.83;101714.47;6335487;22;45371;-96
2022/05/12 11:24:29;;;;;;;;;0.00;0.00;;;;;46.06;44.95;101712.59;6334050;22;45528;-95
2022/05/12 11:27:22;;;;;;;;;0.67;0.00;;;;;46.51;44.22;101714.97;6333971;22;45340;-93
2022/05/12 11:30:20;;;;;;;;;2.67;0.00;;;;;46.75;43.82;101710.91;6335636;22;45354;-96
2022/05/12 11:32:51;;;;;;;;;0.67;0.00;;;;;46.60;42.80;101716.88;6332350;22;47406;-95
2022/05/12 11:35:22;;;;;;;;;0.00;0.00;;;;;44.86;41.79;101722.25;6335934;22;45347;-96
2022/05/12 11:37:49;;;;;;;;;0.00;0.00;;;;;42.71;42.72;101714.69;6351389;22;45322;-96
2022/05/12 11:40:48;;;;;;;;;1.00;1.00;;;;;40.69;43.32;101716.31;6347753;22;44886;-96
2022/05/12 11:46:24;;;;;;;;;0.00;0.00;;;;;39.64;45.05;101706.56;6346174;22;45210;-95
2022/05/12 11:49:17;;;;;;;;;1.00;1.00;;;;;39.72;45.80;101709.72;6328355;22;45679;-96
2022/05/12 11:51:54;;;;;;;;;1.67;0.00;;;;;39.53;45.60;101710.03;6333138;22;45381;-96
2022/05/12 11:54:30;;;;;;;;;0.00;0.00;;;;;39.28;46.23;101706.94;6335498;22;46938;-95
2022/05/12 11:56:58;;;;;;;;;0.00;0.00;;;;;40.29;46.40;101701.50;6336168;22;45781;-94
2022/05/12 11:59:26;;;;;;;;;1.67;1.00;;;;;41.17;46.30;101705.72;6335530;22;45158;-96
2022/05/12 12:01:56;;;;;;;;;0.00;0.00;;;;;43.49;47.23;101706.84;6334935;22;45248;-94
2022/05/12 12:04:37;;;;;;;;;1.00;1.00;;;;;45.52;45.12;101704.53;6334579;22;45271;-94
2022/05/12 12:07:07;;;;;;;;;0.00;0.00;;;;;44.71;43.26;101704.22;6332789;22;45370;-96
2022/05/12 12:09:36;;;;;;;;;1.00;0.00;;;;;43.01;42.89;101700.50;6332705;22;45356;-96
2022/05/12 12:12:05;;;;;;;;;0.00;0.00;;;;;41.47;43.59;101709.97;6333982;22;45698;-94
2022/05/12 12:14:42;;;;;;;;;0.67;0.00;;;;;40.59;43.77;101706.91;6332312;22;48363;-95
2022/05/12 12:17:30;;;;;;;;;1.00;0.00;;;;;39.87;44.47;101699.63;6332560;22;45324;-93
2022/05/12 12:19:58;;;;;;;;;0.00;0.00;;;;;38.52;44.28;101707.81;6333452;22;45184;-96
2022/05/12 12:22:37;;;;;;;;;0.00;0.00;;;;;37.19;44.53;101698.69;6332029;22;45336;-95
2022/05/12 12:25:08;;;;;;;;;0.33;0.33;;;;;37.31;45.94;101700.75;6332401;22;47556;-95
2022/05/12 12:27:52;;;;;;;;;0.00;0.00;;;;;39.00;46.46;101694.94;6333855;22;45218;-94
2022/05/12 12:30:32;;;;;;;;;0.00;0.00;;;;;39.97;45.95;101682.53;6333014;22;45394;-95
2022/05/12 12:33:15;;;;;;;;;0.00;0.00;;;;;39.33;45.50;101679.22;6332175;22;45504;-96
2022/05/12 12:35:52;;;;;;;;;1.00;1.00;;;;;38.09;44.94;101675.56;6332338;22;48016;-95
2022/05/12 12:38:49;;;;;;;;;0.00;0.00;;;;;36.80;46.10;101673.31;6332768;22;45343;-94
2022/05/12 12:41:29;;;;;;;;;0.67;0.67;;;;;35.77;46.30;101674.63;6328965;22;45258;-91
2022/05/12 12:44:23;;;;;;;;;0.00;0.00;;;;;35.63;46.75;101673.44;6334573;22;45343;-93
2022/05/12 12:46:48;;;;;;;;;2.00;1.00;;;;;36.29;47.98;101673.06;6332476;22;47414;-95
2022/05/12 12:49:19;;;;;;;;;0.00;0.00;;;;;37.37;47.64;101663.06;6332063;22;45635;-95
2022/05/12 12:51:57;;;;;;;;;0.33;0.33;;;;;38.46;47.29;101675.25;6331526;22;45628;-94
2022/05/12 12:57:11;;;;;;;;;0.00;0.00;;;;;37.44;45.96;101670.88;6334439;22;45305;-95
2022/05/12 12:59:42;;;;;;;;;0.00;0.00;;;;;37.37;46.73;101669.41;6358057;22;45292;-93
2022/05/12 13:02:25;;;;;;;;;1.33;0.33;;;;;37.76;46.21;101671.88;6334803;22;45264;-92
2022/05/12 13:04:55;;;;;;;;;1.00;0.00;;;;;37.03;46.91;101669.41;6337462;22;45229;-96
2022/05/12 13:07:26;;;;;;;;;1.00;1.00;;;;;37.27;47.15;101658.06;6332098;22;46676;-94
2022/05/12 13:09:55;;;;;;;;;3.33;1.00;;;;;38.18;47.11;101660.44;6334013;22;45456;-95
2022/05/12 13:12:25;;;;;;;;;3.00;1.00;;;;;38.79;46.91;101656.84;6333294;22;45330;-95
2022/05/12 13:14:51;;;;;;;;;0.00;0.00;;;;;38.23;46.30;101656.44;6333298;22;45265;-96
2022/05/12 13:17:38;;;;;;;;;1.00;1.00;;;;;37.37;46.27;101652.97;6334884;22;46008;-95
2022/05/12 13:20:16;;;;;;;;;0.00;0.00;;;;;36.30;46.14;101663.00;6333816;22;45341;-96
2022/05/12 13:22:49;;;;;;;;;0.00;0.00;;;;;35.32;47.18;101648.44;6334831;22;45211;-93
2022/05/12 13:25:24;;;;;;;;;1.00;1.00;;;;;35.03;48.40;101645.19;6330969;22;45306;-94
2022/05/12 13:27:51;;;;;;;;;0.00;0.00;;;;;36.51;48.39;101647.41;6332064;22;46908;-95
2022/05/12 13:30:20;;;;;;;;;0.33;0.00;;;;;38.29;48.89;101652.47;6334793;22;45205;-94
2022/05/12 13:32:50;;;;;;;;;0.00;0.00;;;;;39.90;47.88;101646.31;6331637;22;45417;-94
2022/05/12 13:35:17;;;;;;;;;0.00;0.00;;;;;41.11;46.55;101654.69;6331878;22;45248;-94
2022/05/12 13:38:00;;;;;;;;;0.00;0.00;;;;;41.87;45.47;101653.84;6333653;22;45479;-95
2022/05/12 13:41:00;;;;;;;;;1.00;1.00;;;;;43.02;45.38;101656.22;6332564;22;45311;-93
2022/05/12 13:43:42;;;;;;;;;0.00;0.00;;;;;45.09;45.23;101649.22;6335029;22;45184;-94
2022/05/12 13:46:13;;;;;;;;;0.00;0.00;;;;;47.04;43.88;101659.97;6334322;22;45314;-89
2022/05/12 13:48:52;;;;;;;;;0.00;0.00;;;;;47.17;41.42;101651.28;6332601;22;46297;-89
2022/05/12 13:51:39;;;;;;;;;0.00;0.00;;;;;44.91;40.44;101646.19;6333142;22;45221;-92
2022/05/12 13:54:09;;;;;;;;;1.67;0.00;;;;;42.78;41.45;101635.09;6329897;22;45417;-96
2022/05/12 13:56:38;;;;;;;;;0.00;0.00;;;;;42.24;43.08;101632.75;6331931;22;45381;-89
2022/05/12 13:59:27;;;;;;;;;0.33;0.33;;;;;43.71;42.83;101633.25;6327382;22;46137;-92
2022/05/12 14:02:12;;;;;;;;;0.00;0.00;;;;;45.57;42.49;101621.84;6344551;22;45365;-92
2022/05/12 14:04:39;;;;;;;;;0.67;0.00;;;;;47.09;42.30;101613.16;6335745;22;45387;-92
2022/05/12 14:07:04;;;;;;;;;0.00;0.00;;;;;48.25;41.08;101611.84;6336738;22;45332;-95
2022/05/12 14:09:32;;;;;;;;;0.67;0.33;;;;;48.84;40.35;101617.84;6332703;22;48686;-94
2022/05/12 14:12:00;;;;;;;;;0.00;0.00;;;;;47.41;39.01;101629.56;6332871;22;45527;-93
2022/05/12 14:20:09;;;;;;;;;0.00;0.00;;;;;40.67;40.45;101624.69;6204764;22;46109;-92
2022/05/12 14:22:35;;;;;;;;;0.00;0.00;;;;;39.73;41.37;101626.34;6178734;22;45426;-93
2022/05/12 14:25:00;;;;;;;;;0.00;0.00;;;;;39.05;41.57;101615.97;6180322;22;45656;-93
2022/05/12 14:27:26;;;;;;;;;0.00;0.00;;;;;38.33;42.31;101603.81;6178353;22;45412;-90
2022/05/12 14:29:51;;;;;;;;;0.00;0.00;;;;;37.67;42.59;101611.22;6179734;22;47013;-89
2022/05/12 14:32:18;;;;;;;;;1.33;0.33;;;;;36.99;43.01;101611.22;6214827;22;46521;-96
2022/05/12 14:34:46;;;;;;;;;0.00;0.00;;;;;36.40;43.63;101609.69;6184286;22;45373;-95
2022/05/12 14:37:12;;;;;;;;;0.00;0.00;;;;;35.89;44.40;101605.81;6182707;22;45196;-92
2022/05/12 14:39:37;;;;;;;;;0.00;0.00;;;;;35.31;44.31;101599.38;6206192;22;45712;-95
2022/05/12 14:42:04;;;;;;;;;3.00;1.00;;;;;34.85;45.67;101598.69;6212166;22;45400;-94
2022/05/12 14:44:30;;;;;;;;;0.00;0.00;;;;;34.78;45.44;101595.34;6181304;22;45398;-92
2022/05/12 14:47:00;;;;;;;;;0.00;0.00;;;;;34.94;45.85;101581.06;6210408;22;45249;-95
2022/05/12 14:49:32;;;;;;;;;3.33;2.00;;;;;34.71;45.26;101588.41;6214125;22;47216;-96
2022/05/12 14:51:59;;;;;;;;;16.00;14.33;;;;;34.21;45.86;101582.31;6201456;22;44645;-96
2022/05/12 14:54:27;;;;;;;;;9.00;9.00;;;;;33.63;45.93;101581.88;6293095;22;44735;-96
2022/05/12 14:56:53;;;;;;;;;3.00;3.00;;;;;32.99;46.09;101579.69;6300342;22;44772;-95
2022/05/12 15:01:47;;;;;;;;;10.33;8.00;;;;;31.90;47.81;101576.97;6305519;22;46663;-96
2022/05/12 15:06:53;;;;;;;;;0.67;0.67;;;;;31.20;48.69;101570.00;6319903;22;46204;-96
2022/05/12 15:11:53;;;;;;;;;0.00;0.00;;;;;30.92;48.37;101589.72;6422246;22;44657;-95
2022/05/12 15:19:33;;;;;;;;;1.00;1.00;;;;;30.31;49.50;101575.00;6376755;22;46732;-95
2022/05/12 15:22:02;;;;;;;;;0.67;0.00;;;;;30.11;49.90;101579.09;6371157;22;45712;-96
2022/05/12 15:24:30;;;;;;;;;2.33;1.33;;;;;29.87;49.86;101568.81;6391174;22;45129;-96
2022/05/12 15:27:05;;;;;;;;;1.33;0.33;;;;;29.67;50.35;101567.44;6370918;22;45061;-96
2022/05/12 15:37:44;;;;;;;;;0.00;0.00;;;;;28.99;51.38;101589.50;6451793;22;44694;-96
2022/05/12 15:42:47;;;;;;;;;1.00;0.00;;;;;28.56;51.59;101566.88;6415764;22;44938;-96
2022/05/12 15:47:53;;;;;;;;;0.00;0.00;;;;;28.14;52.07;101564.84;6393884;22;45798;-96
2022/05/12 15:56:10;;;;;;;;;0.33;0.33;;;;;27.71;52.97;101549.25;6378204;22;45185;-96
2022/05/12 15:58:38;;;;;;;;;0.00;0.00;;;;;27.76;53.76;101560.88;6381508;22;45305;-96
2022/05/12 16:03:39;;;;;;;;;1.00;1.00;;;;;27.65;54.50;101547.53;6423466;22;44930;-96
2022/05/12 16:06:06;;;;;;;;;1.00;1.00;;;;;27.65;54.51;101549.34;6415153;22;45477;-96
2022/05/12 16:08:32;;;;;;;;;0.00;0.00;;;;;27.61;54.16;101558.38;6399421;22;45214;-95
2022/05/12 16:10:58;;;;;;;;;0.00;0.00;;;;;27.59;54.29;101576.38;6399395;22;47222;-94
2022/05/12 16:13:26;;;;;;;;;1.33;0.33;;;;;27.56;54.61;101572.81;6398889;22;46170;-96
2022/05/12 16:15:54;;;;;;;;;1.00;1.00;;;;;27.47;55.20;101561.28;6402676;22;45398;-96
2022/05/12 16:18:20;;;;;;;;;2.00;0.67;;;;;27.29;55.64;101553.38;6403649;22;45282;-96
2022/05/12 16:20:45;;;;;;;;;0.00;0.00;;;;;27.30;55.11;101559.66;6395689;22;46933;-90
2022/05/12 16:23:10;;;;;;;;;1.00;1.00;;;;;27.21;56.00;101558.88;6395376;22;45594;-88
2022/05/12 16:25:55;;;;;;;;;1.00;0.33;;;;;27.21;55.47;101574.16;6396431;22;45269;-91
2022/05/12 16:28:26;;;;;;;;;1.00;1.00;;;;;27.06;55.67;101567.13;6399609;22;45395;-94
2022/05/12 16:30:52;;;;;;;;;0.33;0.33;;;;;26.95;56.29;101568.13;6398698;22;45331;-92
2022/05/12 16:33:19;;;;;;;;;0.33;0.33;;;;;26.85;56.12;101571.81;6395308;22;45359;-93
2022/05/12 16:35:45;;;;;;;;;0.00;0.00;;;;;26.77;56.37;101564.72;6397200;22;45333;-93
2022/05/12 16:38:11;;;;;;;;;0.00;0.00;;;;;26.63;56.59;101553.16;6395221;22;45310;-93
2022/05/12 16:40:37;;;;;;;;;0.00;0.00;;;;;26.55;56.37;101562.22;6391419;22;47282;-93
2022/05/12 16:43:04;;;;;;;;;0.00;0.00;;;;;26.50;57.06;101566.75;6396934;22;45422;-92
2022/05/12 16:45:31;;;;;;;;;1.00;1.00;;;;;26.45;57.59;101565.88;6396144;22;45886;-93
2022/05/12 16:48:09;;;;;;;;;1.00;1.00;;;;;26.38;56.85;101567.72;6396037;22;45349;-92
2022/05/12 16:50:35;;;;;;;;;0.67;0.00;;;;;26.23;56.67;101569.59;6398081;22;45606;-94
2022/05/12 16:53:01;;;;;;;;;1.00;0.33;;;;;26.08;57.38;101573.31;6395585;22;45280;-95
2022/05/12 16:55:29;;;;;;;;;0.33;0.33;;;;;25.98;57.53;101572.47;6396028;22;45502;-93
2022/05/12 16:57:54;;;;;;;;;0.00;0.00;;;;;25.89;57.93;101570.75;6398167;22;45330;-95
2022/05/12 17:00:22;;;;;;;;;1.00;1.00;;;;;25.86;57.49;101572.56;6395583;22;47933;-93
2022/05/12 17:02:48;;;;;;;;;0.33;0.33;;;;;25.74;58.01;101563.66;6397367;22;45360;-91
2022/05/12 17:05:14;;;;;;;;;2.00;1.00;;;;;25.63;57.71;101574.44;6394826;22;45332;-91
2022/05/12 17:07:40;;;;;;;;;0.33;0.33;;;;;25.50;58.61;101565.53;6397588;22;45671;-95
2022/05/12 17:10:06;;;;;;;;;0.00;0.00;;;;;25.44;59.51;101570.91;6395343;22;47143;-91
2022/05/12 17:12:32;;;;;;;;;0.33;0.33;;;;;25.37;58.59;101562.00;6397162;22;45315;-94
2022/05/12 17:14:58;;;;;;;;;0.67;0.67;;;;;25.32;58.34;101567.41;6398124;22;45579;-93
2022/05/12 17:17:25;;;;;;;;;1.00;1.00;;;;;25.19;59.23;101562.97;6397503;22;45352;-91
2022/05/12 17:19:51;;;;;;;;;0.00;0.00;;;;;25.12;58.80;101562.09;6398898;22;45545;-92
2022/05/12 17:22:16;;;;;;;;;1.00;1.00;;;;;25.07;59.62;101551.38;6395687;22;45567;-95
2022/05/12 17:24:41;;;;;;;;;1.00;1.00;;;;;25.02;60.27;101537.06;6396673;22;45334;-91
2022/05/12 17:27:08;;;;;;;;;1.00;0.67;;;;;25.03;59.23;101554.03;6397199;22;51138;-91
2022/05/12 17:29:34;;;;;;;;;2.67;1.00;;;;;24.97;58.83;101546.88;6398491;22;47366;-92
2022/05/12 17:32:00;;;;;;;;;0.00;0.00;;;;;24.96;60.08;101558.50;6398875;22;45269;-92
2022/05/12 17:34:26;;;;;;;;;0.00;0.00;;;;;24.87;60.25;101546.88;6396604;22;45281;-92
2022/05/12 17:36:52;;;;;;;;;0.00;0.00;;;;;24.84;60.65;101552.25;6397457;22;45234;-91
2022/05/12 17:39:17;;;;;;;;;0.00;0.00;;;;;24.75;60.53;101552.28;6393638;22;46942;-90
2022/05/12 17:41:43;;;;;;;;;0.00;0.00;;;;;24.66;61.07;101543.34;6396370;22;45375;-90
2022/05/12 17:44:08;;;;;;;;;0.00;0.00;;;;;24.61;61.89;101538.91;6394361;22;45607;-89
2022/05/12 17:46:35;;;;;;;;;0.33;0.33;;;;;24.54;61.11;101540.66;6397569;22;45344;-91
2022/05/12 17:49:03;;;;;;;;;0.67;0.00;;;;;24.45;61.10;101541.59;6408519;22;47239;-90
2022/05/12 17:51:29;;;;;;;;;0.67;0.00;;;;;24.33;60.91;101551.41;6419152;22;44651;-96
2022/05/12 17:53:56;;;;;;;;;0.00;0.00;;;;;24.20;62.15;101542.41;6398267;22;46088;-95
2022/05/12 17:56:23;;;;;;;;;1.00;1.00;;;;;24.14;62.02;101533.50;6386519;22;44878;-96
2022/05/12 17:58:48;;;;;;;;;0.00;0.00;;;;;24.09;62.35;101544.22;6379757;22;45589;-94
2022/05/12 18:01:13;;;;;;;;;0.67;0.00;;;;;24.04;62.03;101559.41;6369643;22;45255;-95
2022/05/12 18:03:39;;;;;;;;;0.00;0.00;;;;;24.01;61.81;101565.66;6365884;22;45612;-92
2022/05/12 18:06:06;;;;;;;;;0.33;0.33;;;;;23.94;62.98;101556.69;6349094;22;45324;-95
2022/05/12 18:08:31;;;;;;;;;1.33;0.33;;;;;23.87;62.61;101555.78;6336451;22;48651;-92
2022/05/12 18:10:57;;;;;;;;;1.00;1.00;;;;;23.82;62.70;101557.56;6336512;22;46103;-91
2022/05/12 18:13:23;;;;;;;;;2.33;1.33;;;;;23.76;62.64;101553.06;6366648;22;45337;-94
2022/05/12 18:15:52;;;;;;;;;2.00;2.00;;;;;23.75;63.41;101561.13;6364976;22;45465;-90
2022/05/12 18:18:18;;;;;;;;;1.00;1.00;;;;;23.71;62.73;101556.66;6335277;22;47422;-90
2022/05/12 18:20:45;;;;;;;;;2.00;2.00;;;;;23.66;63.00;101557.50;6365963;22;45561;-90
2022/05/12 18:23:11;;;;;;;;;0.67;0.67;;;;;23.66;63.73;101553.91;6336142;22;45370;-91
2022/05/12 18:25:37;;;;;;;;;0.67;0.67;;;;;23.59;62.88;101560.16;6337804;22;45366;-89
2022/05/12 18:28:05;;;;;;;;;1.33;1.33;;;;;23.51;63.85;101553.00;6365379;22;45535;-89
2022/05/12 18:30:30;;;;;;;;;3.00;0.00;;;;;23.43;62.93;101560.06;6337946;22;45940;-88
2022/05/12 18:32:59;;;;;;;;;0.33;0.33;;;;;23.40;63.12;101563.63;6365104;22;45249;-89
2022/05/12 18:35:25;;;;;;;;;1.00;1.00;;;;;23.36;63.29;101561.81;6364317;22;45574;-89
2022/05/12 18:37:50;;;;;;;;;1.00;1.00;;;;;23.29;63.99;101551.97;6365266;22;45329;-89
2022/05/12 18:40:18;;;;;;;;;2.00;1.00;;;;;23.26;64.32;101549.28;6337753;22;54046;-90
2022/05/12 18:42:44;;;;;;;;;0.00;0.00;;;;;23.21;64.43;101555.50;6365766;22;45438;-90
2022/05/12 18:45:11;;;;;;;;;1.33;0.00;;;;;23.12;64.87;101551.91;6367367;22;45371;-91
2022/05/12 18:47:36;;;;;;;;;1.33;1.33;;;;;23.04;64.79;101552.72;6364888;22;45379;-90
2022/05/12 18:50:04;;;;;;;;;1.67;1.67;;;;;22.96;65.06;101551.81;6338742;22;45304;-87
2022/05/12 18:52:30;;;;;;;;;1.00;1.00;;;;;22.88;64.90;101560.66;6363728;22;45390;-87
2022/05/12 18:54:55;;;;;;;;;1.00;1.00;;;;;22.79;64.77;101557.91;6363850;22;45272;-86
2022/05/12 18:57:20;;;;;;;;;2.00;1.00;;;;;22.73;65.21;101556.09;6364342;22;45367;-87
2022/05/12 18:59:46;;;;;;;;;2.00;2.00;;;;;22.69;65.83;101554.25;6364743;22;45405;-87
2022/05/12 19:02:13;;;;;;;;;3.67;3.67;;;;;22.59;65.66;101549.72;6336010;22;45283;-87
2022/05/12 19:04:43;;;;;;;;;2.00;2.00;;;;;22.53;65.74;101562.16;6363792;22;45423;-86
2022/05/12 19:07:09;;;;;;;;;1.00;1.00;;;;;22.44;65.55;101562.09;6336043;22;47036;-88